createdAt,value
2023-03-23T15:58:31.183Z,99563.33
2023-03-23T16:00:24.404Z,99565.35
2023-03-23T16:02:22.761Z,99562.64
2023-03-23T16:04:19.015Z,99565.02
2023-03-23T16:06:12.636Z,99559.39
2023-03-23T16:08:16.913Z,99561.02
2023-03-23T16:10:15.769Z,99565.76
2023-03-23T16:12:11.514Z,99570.42
2023-03-23T16:14:02.852Z,99564.95
2023-03-23T16:15:54.538Z,99564.56
2023-03-23T16:17:46.836Z,99563.44
2023-03-23T16:19:38.326Z,99566.55
2023-03-23T16:21:29.552Z,99565.38
2023-03-23T16:23:21.213Z,99570.01
2023-03-23T16:25:16.049Z,99566.96
2023-03-23T16:27:09.921Z,99572.48
2023-03-23T16:29:12.961Z,99572.05
2023-03-23T16:31:12.115Z,99571.59
2023-03-23T16:33:03.918Z,99573.86
2023-03-23T16:34:55.398Z,99580.73
2023-03-23T16:36:46.634Z,99583.55
2023-03-23T16:38:49.664Z,99577.95
2023-03-23T16:40:46.626Z,99581.58
2023-03-23T16:42:38.207Z,99579.66
2023-03-23T16:44:29.979Z,99584.08
2023-03-23T16:46:21.338Z,99577.08
2023-03-23T16:48:14.244Z,99579.80
2023-03-23T16:50:08.604Z,99581.05
2023-03-23T16:52:00.215Z,99584.55
2023-03-23T16:53:51.532Z,99588.29
2023-03-23T16:55:47.859Z,99589.21
2023-03-23T16:57:41.387Z,99590.23
2023-03-23T16:59:33.273Z,99591.34
2023-03-23T17:01:24.628Z,99594.16
2023-03-23T17:03:20.377Z,99597.20
2023-03-23T17:05:12.694Z,99603.39
2023-03-23T17:07:04.325Z,99600.33
2023-03-23T17:08:55.634Z,99600.52
2023-03-23T17:10:47.507Z,99596.85
2023-03-23T17:12:39.695Z,99602.29
2023-03-23T17:14:30.799Z,99608.73
2023-03-23T17:16:22.449Z,99610.44
2023-03-23T17:18:14.729Z,99613.23
2023-03-23T17:20:07.658Z,99617.40
2023-03-23T17:21:59.397Z,99612.48
2023-03-23T17:23:51.681Z,99607.27
2023-03-23T17:25:45.626Z,99608.83
2023-03-23T17:27:37.819Z,99611.18
2023-03-23T17:29:29.418Z,99608.42
2023-03-23T17:31:21.524Z,99611.08
2023-03-23T17:33:13.264Z,99609.20
2023-03-23T17:35:06.659Z,99608.65
2023-03-23T17:36:57.862Z,99612.73
2023-03-23T17:38:49.143Z,99614.60
2023-03-23T17:40:40.968Z,99614.14
2023-03-23T17:42:32.659Z,99613.12
2023-03-23T17:44:24.461Z,99614.77
2023-03-23T17:46:16.057Z,99618.14
2023-03-23T17:48:08.048Z,99619.63
2023-03-23T17:49:59.691Z,99621.14
2023-03-23T17:51:51.189Z,99624.11
2023-03-23T17:53:42.329Z,99626.20
2023-03-23T17:55:33.771Z,99622.30
2023-03-23T17:57:25.570Z,99621.13
2023-03-23T17:59:17.151Z,99622.89
2023-03-23T18:01:08.927Z,99624.96
2023-03-23T18:03:00.839Z,99630.36
2023-03-23T18:04:52.664Z,99634.67
2023-03-23T18:06:45.091Z,99639.59
2023-03-23T18:08:37.308Z,99640.88
2023-03-23T18:10:28.880Z,99646.65
2023-03-23T18:12:20.455Z,99651.11
2023-03-23T18:14:11.771Z,99645.15
2023-03-23T18:16:05.298Z,99638.45
2023-03-23T18:17:57.396Z,99629.99
2023-03-23T18:19:48.933Z,99629.29
2023-03-23T18:21:40.725Z,99631.45
2023-03-23T18:23:39.054Z,99631.67
2023-03-23T18:25:36.657Z,99630.27
2023-03-23T18:27:28.163Z,99638.73
2023-03-23T18:29:19.891Z,99636.66
2023-03-23T18:31:15.219Z,99642.92
2023-03-23T18:33:06.914Z,99642.38
2023-03-23T18:34:58.733Z,99649.70
2023-03-23T18:36:50.648Z,99649.70
2023-03-23T18:38:42.308Z,99652.59
2023-03-23T18:40:34.287Z,99656.23
2023-03-23T18:42:26.895Z,99658.36
2023-03-23T18:44:18.349Z,99657.51
2023-03-23T18:46:09.745Z,99658.39
2023-03-23T18:48:01.383Z,99666.61
2023-03-23T18:49:55.313Z,99669.11
2023-03-23T18:51:46.736Z,99670.20
2023-03-23T18:53:37.835Z,99666.73
2023-03-23T18:55:29.033Z,99671.83
2023-03-23T18:57:22.723Z,99672.71
2023-03-23T18:59:14.008Z,99678.17
2023-03-23T19:01:07.566Z,99673.41
2023-03-23T19:02:58.989Z,99672.82
2023-03-23T19:04:51.095Z,99672.21
2023-03-23T19:06:42.566Z,99672.10
2023-03-23T19:08:34.944Z,99668.48
2023-03-23T19:10:27.301Z,99663.59
2023-03-23T19:12:18.976Z,99660.08
2023-03-23T19:14:10.456Z,99660.48
2023-03-23T19:16:02.131Z,99656.14
2023-03-23T19:17:56.142Z,99654.73
2023-03-23T19:19:47.439Z,99652.15
2023-03-23T19:21:47.005Z,99652.19
2023-03-23T19:23:38.716Z,99654.65
2023-03-23T19:25:29.998Z,99655.05
2023-03-23T19:27:21.420Z,99659.57
2023-03-23T19:31:15.571Z,99670.57
2023-03-23T19:33:07.009Z,99668.47
2023-03-23T19:34:59.245Z,99664.66
2023-03-23T19:36:56.200Z,99669.86
2023-03-23T19:38:54.938Z,99673.29
2023-03-23T19:40:56.000Z,99666.04
2023-03-23T19:42:48.172Z,99665.26
2023-03-23T19:44:41.207Z,99668.61
2023-03-23T19:46:32.929Z,99671.05
2023-03-23T19:48:24.548Z,99665.79
2023-03-23T19:50:16.658Z,99665.71
2023-03-23T19:52:12.713Z,99663.85
2023-03-23T19:54:07.733Z,99663.48
2023-03-23T19:55:59.543Z,99664.35
2023-03-23T19:57:51.348Z,99664.98
2023-03-23T19:59:44.291Z,99662.23
2023-03-23T20:01:36.294Z,99673.60
2023-03-23T20:03:28.467Z,99675.23
2023-03-23T20:07:07.802Z,99679.95
2023-03-23T20:09:00.356Z,99689.63
2023-03-23T20:10:53.297Z,99693.08
2023-03-23T20:12:44.864Z,99696.05
2023-03-23T20:14:37.534Z,99700.55
2023-03-23T20:16:29.400Z,99704.27
2023-03-23T20:18:21.620Z,99703.04
2023-03-23T20:20:15.028Z,99704.20
2023-03-23T20:22:06.752Z,99704.04
2023-03-23T20:23:58.909Z,99707.60
2023-03-23T20:25:51.146Z,99706.74
2023-03-23T20:27:44.751Z,99704.21
2023-03-23T20:29:36.778Z,99702.38
2023-03-23T20:31:30.969Z,99704.78
2023-03-23T20:33:22.576Z,99704.96
2023-03-23T20:35:14.837Z,99704.34
2023-03-23T20:37:07.556Z,99704.23
2023-03-23T20:38:59.251Z,99705.39
2023-03-23T20:40:51.394Z,99706.66
2023-03-23T20:42:44.166Z,99713.02
2023-03-23T20:44:36.215Z,99704.56
2023-03-23T20:46:28.704Z,99704.27
2023-03-23T20:48:20.612Z,99696.52
2023-03-23T20:50:12.570Z,99691.90
2023-03-23T20:52:06.252Z,99690.50
2023-03-23T20:53:58.028Z,99695.21
2023-03-23T20:55:51.509Z,99695.98
2023-03-23T20:57:43.575Z,99693.80
2023-03-23T20:59:35.551Z,99697.61
2023-03-23T21:01:27.063Z,99694.73
2023-03-23T21:03:19.110Z,99694.97
2023-03-23T21:05:11.028Z,99701.46
2023-03-23T21:07:02.698Z,99697.38
2023-03-23T21:08:56.065Z,99699.29
2023-03-23T21:10:48.172Z,99701.77
2023-03-23T21:12:39.824Z,99702.16
2023-03-23T21:14:32.899Z,99703.48
2023-03-23T21:16:24.592Z,99705.40
2023-03-23T21:18:16.525Z,99704.55
2023-03-23T21:20:11.171Z,99711.38
2023-03-23T21:22:02.639Z,99708.21
2023-03-23T21:33:23.353Z,99722.54
2023-03-23T21:35:15.130Z,99719.02
2023-03-23T21:37:06.616Z,99722.77
2023-03-23T21:38:58.884Z,99721.11
2023-03-23T21:40:50.186Z,99719.87
2023-03-23T21:42:44.369Z,99722.73
2023-03-23T21:44:36.861Z,99721.92
2023-03-23T21:46:28.126Z,99723.05
2023-03-23T21:48:22.064Z,99717.08
2023-03-23T21:50:14.203Z,99706.95
2023-03-23T21:52:05.797Z,99709.23
2023-03-23T21:53:57.984Z,99709.40
2023-03-23T21:55:54.698Z,99705.90
2023-03-23T21:57:47.187Z,99704.65
2023-03-23T21:59:38.883Z,99705.14
2023-03-23T22:01:30.781Z,99703.04
2023-03-23T22:03:24.072Z,99701.98
2023-03-23T22:05:15.996Z,99695.51
2023-03-23T22:07:08.099Z,99695.48
2023-03-23T22:09:01.216Z,99695.01
2023-03-23T22:11:00.468Z,99694.45
2023-03-23T22:12:55.479Z,99696.05
2023-03-23T22:14:47.304Z,99697.02
2023-03-23T22:16:38.657Z,99697.88
2023-03-23T22:18:30.771Z,99701.31
2023-03-23T22:20:22.585Z,99699.65
2023-03-23T22:22:14.244Z,99701.55
2023-03-23T22:24:06.128Z,99696.65
2023-03-23T22:25:58.089Z,99698.27
2023-03-23T22:27:49.725Z,99696.98
2023-03-23T22:29:41.694Z,99697.86
2023-03-23T22:31:34.811Z,99695.27
2023-03-23T22:33:26.293Z,99700.75
2023-03-23T22:35:18.044Z,99704.33
2023-03-23T22:37:09.255Z,99704.92
2023-03-23T22:39:01.720Z,99706.25
2023-03-23T22:41:01.194Z,99704.77
2023-03-23T22:42:52.683Z,99700.30
2023-03-23T22:44:44.241Z,99701.46
2023-03-23T22:46:35.928Z,99702.89
2023-03-23T22:48:28.340Z,99704.02
2023-03-23T22:50:21.547Z,99704.02
2023-03-23T22:52:12.910Z,99699.95
2023-03-23T22:54:05.431Z,99698.39
2023-03-23T22:55:57.798Z,99696.62
2023-03-23T22:57:49.703Z,99696.02
2023-03-23T22:59:40.930Z,99694.63
2023-03-23T23:01:33.252Z,99693.66
2023-03-23T23:03:24.907Z,99695.61
2023-03-23T23:05:16.473Z,99693.55
2023-03-23T23:07:14.125Z,99694.65
2023-03-23T23:09:06.328Z,99691.20
2023-03-23T23:10:59.671Z,99691.73
2023-03-23T23:12:54.142Z,99693.95
2023-03-23T23:14:45.902Z,99691.27
2023-03-23T23:16:37.310Z,99691.71
2023-03-23T23:18:30.497Z,99691.52
2023-03-23T23:20:24.629Z,99687.42
2023-03-23T23:22:19.218Z,99684.56
2023-03-23T23:24:11.133Z,99684.41
2023-03-23T23:26:03.169Z,99683.35
2023-03-23T23:27:58.427Z,99685.20
2023-03-23T23:29:49.914Z,99687.33
2023-03-23T23:31:41.243Z,99683.38
2023-03-23T23:33:32.705Z,99672.00
2023-03-23T23:35:25.007Z,99676.83
2023-03-23T23:37:16.634Z,99680.06
2023-03-23T23:39:07.855Z,99678.01
2023-03-23T23:40:59.083Z,99676.41
2023-03-23T23:42:51.757Z,99675.17
2023-03-23T23:44:45.330Z,99674.52
2023-03-23T23:46:36.955Z,99670.77
2023-03-23T23:48:28.694Z,99669.23
2023-03-23T23:50:20.702Z,99669.38
2023-03-23T23:52:12.248Z,99664.58
2023-03-23T23:54:04.817Z,99668.98
2023-03-23T23:55:56.197Z,99668.41
2023-03-23T23:57:48.807Z,99670.54
2023-03-23T23:59:41.082Z,99662.05
